< Typhoon 196823 1968 Season Typhoon 196825 >
Typhoon 196824 (LOLA)
General InformationTrack Information on Google Maps || Disaster Info.ResourceGoogle EarthGE AnimationAtom FeedGeoJSON
Detalied Best Track (Time Zone = UTC)
Year Month Day Hour Lat. Long. Pressure (hPa) Wind (kt) Class Image Chart
1968 11 5 12 8.1 164.1 1008 0 2 -- Chart
1968 11 5 18 8.3 163.8 1008 0 2 -- Chart
1968 11 6 00 8.5 163.5 1008 0 2 -- Chart
1968 11 6 06 8.7 163.1 1008 0 2 -- Chart
1968 11 6 12 9.1 162.5 1008 0 2 -- Chart
1968 11 6 18 9.6 161.6 1008 0 2 -- Chart
1968 11 7 00 10.0 160.9 1008 0 2 -- Chart
1968 11 7 06 10.6 159.0 1006 0 2 -- Chart
1968 11 7 12 11.1 157.3 1004 0 2 -- Chart
1968 11 7 18 11.6 155.5 1002 0 2 -- Chart
1968 11 8 00 12.1 153.7 1000 0 2 -- Chart
1968 11 8 06 12.7 153.1 998 0 9 -- Chart
1968 11 8 12 13.3 152.3 990 0 9 -- Chart
1968 11 8 18 13.8 151.8 985 0 9 -- Chart
1968 11 9 00 14.4 151.6 975 0 9 -- Chart
1968 11 9 06 14.8 151.1 965 0 9 -- Chart
1968 11 9 12 15.5 150.5 960 0 9 -- Chart
1968 11 9 18 16.0 149.9 955 0 9 -- Chart
1968 11 10 00 16.5 149.3 945 0 9 -- Chart
1968 11 10 06 17.5 148.5 940 0 9 -- Chart
1968 11 10 12 18.5 147.5 945 0 9 -- Chart
1968 11 10 18 19.5 146.6 945 0 9 -- Chart
1968 11 11 00 20.3 146.0 950 0 9 -- Chart
1968 11 11 06 21.3 145.4 950 0 9 -- Chart
1968 11 11 12 22.3 145.5 950 0 9 -- Chart
1968 11 11 18 23.8 146.1 950 0 9 -- Chart
1968 11 12 00 25.9 146.9 955 0 9 -- Chart
1968 11 12 06 28.0 149.5 965 0 9 -- Chart
1968 11 12 12 30.5 154.0 975 0 9 -- Chart
1968 11 12 18 34.0 159.0 985 0 9 -- Chart
1968 11 13 00 38.0 164.0 988 0 6 -- Chart
1968 11 13 06 41.8 170.0 982 0 6 -- Chart
1968 11 13 12 43.7 173.5 976 0 6 -- Chart
1968 11 13 18 45.3 176.8 970 0 6 -- Chart
1968 11 14 00 47.0 180.0 956 0 6 -- Chart
1968 11 14 06 48.7 182.6 954 0 6 -- Chart
Japan Meteorological Agency Best Track Data | Correction Date : 1989-06-01
< Typhoon 196823 1968 Season Typhoon 196825 >

Help